sensor_id;sensor_type;location;lat;lon;timestamp;temperature;humidity
10030;DHT22;5055;52.054;8.524;2023-04-25T00:00:26;6.70;97.00
10030;DHT22;5055;52.054;8.524;2023-04-25T00:02:54;6.70;97.00
10030;DHT22;5055;52.054;8.524;2023-04-25T00:05:24;6.70;97.00
10030;DHT22;5055;52.054;8.524;2023-04-25T00:07:52;6.70;97.00
10030;DHT22;5055;52.054;8.524;2023-04-25T00:10:22;6.70;97.00
10030;DHT22;5055;52.054;8.524;2023-04-25T00:12:50;6.70;97.00
10030;DHT22;5055;52.054;8.524;2023-04-25T00:15:18;6.70;97.00
10030;DHT22;5055;52.054;8.524;2023-04-25T00:17:47;6.70;97.00
10030;DHT22;5055;52.054;8.524;2023-04-25T00:20:15;6.70;97.00
10030;DHT22;5055;52.054;8.524;2023-04-25T00:22:43;6.70;97.00
10030;DHT22;5055;52.054;8.524;2023-04-25T00:25:12;6.60;97.00
10030;DHT22;5055;52.054;8.524;2023-04-25T00:27:41;6.60;97.00
10030;DHT22;5055;52.054;8.524;2023-04-25T00:30:10;6.60;97.00
10030;DHT22;5055;52.054;8.524;2023-04-25T00:32:38;6.60;97.00
10030;DHT22;5055;52.054;8.524;2023-04-25T00:35:07;6.50;97.00
10030;DHT22;5055;52.054;8.524;2023-04-25T00:37:35;6.50;97.00
10030;DHT22;5055;52.054;8.524;2023-04-25T00:40:06;6.50;97.00
10030;DHT22;5055;52.054;8.524;2023-04-25T00:42:35;6.50;97.00
10030;DHT22;5055;52.054;8.524;2023-04-25T00:45:07;6.50;97.00
10030;DHT22;5055;52.054;8.524;2023-04-25T00:47:37;6.50;97.00
10030;DHT22;5055;52.054;8.524;2023-04-25T00:50:07;6.50;97.00
10030;DHT22;5055;52.054;8.524;2023-04-25T00:52:36;6.40;97.00
10030;DHT22;5055;52.054;8.524;2023-04-25T00:55:05;6.40;97.00
10030;DHT22;5055;52.054;8.524;2023-04-25T00:57:34;6.40;97.00
10030;DHT22;5055;52.054;8.524;2023-04-25T01:00:04;6.40;97.00
10030;DHT22;5055;52.054;8.524;2023-04-25T01:02:34;6.40;97.00
10030;DHT22;5055;52.054;8.524;2023-04-25T01:05:03;6.30;97.00
10030;DHT22;5055;52.054;8.524;2023-04-25T01:07:32;6.30;97.00
10030;DHT22;5055;52.054;8.524;2023-04-25T01:10:00;6.30;97.00
10030;DHT22;5055;52.054;8.524;2023-04-25T01:12:29;6.30;97.00
10030;DHT22;5055;52.054;8.524;2023-04-25T01:14:57;6.30;97.00
10030;DHT22;5055;52.054;8.524;2023-04-25T01:17:25;6.30;97.00
10030;DHT22;5055;52.054;8.524;2023-04-25T01:19:55;6.30;97.00
10030;DHT22;5055;52.054;8.524;2023-04-25T01:22:25;6.30;97.00
10030;DHT22;5055;52.054;8.524;2023-04-25T01:24:53;6.30;97.00
10030;DHT22;5055;52.054;8.524;2023-04-25T01:27:22;6.30;97.00
10030;DHT22;5055;52.054;8.524;2023-04-25T01:29:50;6.30;97.00
10030;DHT22;5055;52.054;8.524;2023-04-25T01:32:18;6.30;97.00
10030;DHT22;5055;52.054;8.524;2023-04-25T01:34:47;6.30;97.00
10030;DHT22;5055;52.054;8.524;2023-04-25T01:37:16;6.30;97.00
10030;DHT22;5055;52.054;8.524;2023-04-25T01:39:46;6.30;97.00
10030;DHT22;5055;52.054;8.524;2023-04-25T01:42:15;6.30;97.00
10030;DHT22;5055;52.054;8.524;2023-04-25T01:44:43;6.30;97.00
10030;DHT22;5055;52.054;8.524;2023-04-25T01:47:11;6.30;97.00
10030;DHT22;5055;52.054;8.524;2023-04-25T01:49:39;6.30;97.00
10030;DHT22;5055;52.054;8.524;2023-04-25T01:52:08;6.30;97.00
10030;DHT22;5055;52.054;8.524;2023-04-25T01:54:36;6.30;97.00
10030;DHT22;5055;52.054;8.524;2023-04-25T01:57:05;6.30;97.00
10030;DHT22;5055;52.054;8.524;2023-04-25T01:59:33;6.30;97.00
10030;DHT22;5055;52.054;8.524;2023-04-25T02:02:01;6.30;97.00
10030;DHT22;5055;52.054;8.524;2023-04-25T02:04:30;6.30;97.00
10030;DHT22;5055;52.054;8.524;2023-04-25T02:06:58;6.30;97.00
10030;DHT22;5055;52.054;8.524;2023-04-25T02:09:26;6.30;97.00
10030;DHT22;5055;52.054;8.524;2023-04-25T02:11:55;6.40;97.00
10030;DHT22;5055;52.054;8.524;2023-04-25T02:14:24;6.40;97.00
10030;DHT22;5055;52.054;8.524;2023-04-25T02:16:52;6.40;97.00
10030;DHT22;5055;52.054;8.524;2023-04-25T02:19:21;6.40;97.00
10030;DHT22;5055;52.054;8.524;2023-04-25T02:21:49;6.40;97.00
10030;DHT22;5055;52.054;8.524;2023-04-25T02:24:17;6.40;97.00
10030;DHT22;5055;52.054;8.524;2023-04-25T02:26:45;6.40;97.00
10030;DHT22;5055;52.054;8.524;2023-04-25T02:29:13;6.40;97.00
10030;DHT22;5055;52.054;8.524;2023-04-25T02:31:43;6.40;97.00
10030;DHT22;5055;52.054;8.524;2023-04-25T02:34:11;6.40;97.00
10030;DHT22;5055;52.054;8.524;2023-04-25T02:36:39;6.40;97.00
10030;DHT22;5055;52.054;8.524;2023-04-25T02:39:07;6.50;97.00
10030;DHT22;5055;52.054;8.524;2023-04-25T02:41:35;6.50;97.00
10030;DHT22;5055;52.054;8.524;2023-04-25T02:44:03;6.50;97.00
10030;DHT22;5055;52.054;8.524;2023-04-25T02:46:32;6.40;97.00
10030;DHT22;5055;52.054;8.524;2023-04-25T02:49:07;6.40;97.00
10030;DHT22;5055;52.054;8.524;2023-04-25T02:51:35;6.40;97.00
10030;DHT22;5055;52.054;8.524;2023-04-25T02:54:03;6.40;97.00
10030;DHT22;5055;52.054;8.524;2023-04-25T02:56:33;6.30;97.00
10030;DHT22;5055;52.054;8.524;2023-04-25T02:59:01;6.40;97.00
10030;DHT22;5055;52.054;8.524;2023-04-25T03:01:29;6.40;97.00
10030;DHT22;5055;52.054;8.524;2023-04-25T03:03:57;6.30;97.00
10030;DHT22;5055;52.054;8.524;2023-04-25T03:06:26;6.30;97.00
10030;DHT22;5055;52.054;8.524;2023-04-25T03:08:54;6.30;97.00
10030;DHT22;5055;52.054;8.524;2023-04-25T03:11:24;6.30;97.00
10030;DHT22;5055;52.054;8.524;2023-04-25T03:13:52;6.30;97.00
10030;DHT22;5055;52.054;8.524;2023-04-25T03:16:21;6.30;97.00
10030;DHT22;5055;52.054;8.524;2023-04-25T03:18:49;6.30;97.00
10030;DHT22;5055;52.054;8.524;2023-04-25T03:21:17;6.30;97.00
10030;DHT22;5055;52.054;8.524;2023-04-25T03:23:47;6.30;97.00
10030;DHT22;5055;52.054;8.524;2023-04-25T03:26:15;6.20;97.00
10030;DHT22;5055;52.054;8.524;2023-04-25T03:28:43;6.20;97.00
10030;DHT22;5055;52.054;8.524;2023-04-25T03:31:11;6.20;97.00
10030;DHT22;5055;52.054;8.524;2023-04-25T03:33:39;6.20;97.00
10030;DHT22;5055;52.054;8.524;2023-04-25T03:36:08;6.20;97.00
10030;DHT22;5055;52.054;8.524;2023-04-25T03:38:36;6.10;97.00
10030;DHT22;5055;52.054;8.524;2023-04-25T03:41:06;6.10;97.00
10030;DHT22;5055;52.054;8.524;2023-04-25T03:43:34;6.10;97.00
10030;DHT22;5055;52.054;8.524;2023-04-25T03:46:02;6.10;97.00
10030;DHT22;5055;52.054;8.524;2023-04-25T03:48:30;6.10;97.00
10030;DHT22;5055;52.054;8.524;2023-04-25T03:50:58;6.10;97.00
10030;DHT22;5055;52.054;8.524;2023-04-25T03:53:26;6.10;97.00
10030;DHT22;5055;52.054;8.524;2023-04-25T03:55:54;6.10;97.00
10030;DHT22;5055;52.054;8.524;2023-04-25T03:58:24;6.10;97.00
10030;DHT22;5055;52.054;8.524;2023-04-25T04:00:51;6.10;97.00
10030;DHT22;5055;52.054;8.524;2023-04-25T04:03:20;6.10;97.00
10030;DHT22;5055;52.054;8.524;2023-04-25T04:05:48;6.10;97.00
10030;DHT22;5055;52.054;8.524;2023-04-25T04:08:17;6.10;97.00
10030;DHT22;5055;52.054;8.524;2023-04-25T04:10:45;6.10;97.00
10030;DHT22;5055;52.054;8.524;2023-04-25T04:13:13;6.00;97.00
10030;DHT22;5055;52.054;8.524;2023-04-25T04:15:42;6.00;97.00
10030;DHT22;5055;52.054;8.524;2023-04-25T04:18:10;6.00;97.00
10030;DHT22;5055;52.054;8.524;2023-04-25T04:20:39;6.00;97.00
10030;DHT22;5055;52.054;8.524;2023-04-25T04:23:07;6.00;97.00
10030;DHT22;5055;52.054;8.524;2023-04-25T04:25:35;6.00;97.00
10030;DHT22;5055;52.054;8.524;2023-04-25T04:28:03;6.00;97.00
10030;DHT22;5055;52.054;8.524;2023-04-25T04:30:32;5.90;97.00
10030;DHT22;5055;52.054;8.524;2023-04-25T04:33:04;5.90;97.00
10030;DHT22;5055;52.054;8.524;2023-04-25T04:35:32;5.90;97.00
10030;DHT22;5055;52.054;8.524;2023-04-25T04:38:00;5.90;97.00
10030;DHT22;5055;52.054;8.524;2023-04-25T04:40:29;5.90;97.00
10030;DHT22;5055;52.054;8.524;2023-04-25T04:42:58;5.90;97.00
10030;DHT22;5055;52.054;8.524;2023-04-25T04:45:26;5.90;97.00
10030;DHT22;5055;52.054;8.524;2023-04-25T04:47:54;5.90;97.00
10030;DHT22;5055;52.054;8.524;2023-04-25T04:50:24;6.00;97.00
10030;DHT22;5055;52.054;8.524;2023-04-25T04:52:53;6.00;97.00
10030;DHT22;5055;52.054;8.524;2023-04-25T04:55:22;6.00;97.00
10030;DHT22;5055;52.054;8.524;2023-04-25T04:57:49;6.00;97.00
10030;DHT22;5055;52.054;8.524;2023-04-25T05:00:18;6.00;97.00
10030;DHT22;5055;52.054;8.524;2023-04-25T05:02:47;6.00;97.00
10030;DHT22;5055;52.054;8.524;2023-04-25T05:05:16;6.00;97.00
10030;DHT22;5055;52.054;8.524;2023-04-25T05:07:45;6.00;97.00
10030;DHT22;5055;52.054;8.524;2023-04-25T05:10:14;6.00;97.00
10030;DHT22;5055;52.054;8.524;2023-04-25T05:12:42;6.10;97.00
10030;DHT22;5055;52.054;8.524;2023-04-25T05:15:11;6.10;97.00
10030;DHT22;5055;52.054;8.524;2023-04-25T05:17:39;6.10;97.00
10030;DHT22;5055;52.054;8.524;2023-04-25T05:20:08;6.10;97.00
10030;DHT22;5055;52.054;8.524;2023-04-25T05:22:36;6.20;97.00
10030;DHT22;5055;52.054;8.524;2023-04-25T05:25:06;6.20;97.00
10030;DHT22;5055;52.054;8.524;2023-04-25T05:27:34;6.20;97.00
10030;DHT22;5055;52.054;8.524;2023-04-25T05:30:03;6.20;97.00
10030;DHT22;5055;52.054;8.524;2023-04-25T05:32:32;6.20;97.00
10030;DHT22;5055;52.054;8.524;2023-04-25T05:35:00;6.30;97.00
10030;DHT22;5055;52.054;8.524;2023-04-25T05:37:29;6.30;97.00
10030;DHT22;5055;52.054;8.524;2023-04-25T05:39:59;6.30;97.00
10030;DHT22;5055;52.054;8.524;2023-04-25T05:42:29;6.30;97.00
10030;DHT22;5055;52.054;8.524;2023-04-25T05:44:57;6.40;97.00
10030;DHT22;5055;52.054;8.524;2023-04-25T05:47:25;6.40;97.00
10030;DHT22;5055;52.054;8.524;2023-04-25T05:49:53;6.50;97.00
10030;DHT22;5055;52.054;8.524;2023-04-25T05:52:21;6.50;97.00
10030;DHT22;5055;52.054;8.524;2023-04-25T05:54:49;6.50;97.00
10030;DHT22;5055;52.054;8.524;2023-04-25T05:57:22;6.50;97.00
10030;DHT22;5055;52.054;8.524;2023-04-25T05:59:52;6.60;97.00
10030;DHT22;5055;52.054;8.524;2023-04-25T06:02:20;6.60;97.00
10030;DHT22;5055;52.054;8.524;2023-04-25T06:04:49;6.60;97.00
10030;DHT22;5055;52.054;8.524;2023-04-25T06:07:18;6.60;97.00
10030;DHT22;5055;52.054;8.524;2023-04-25T06:09:46;6.70;97.00
10030;DHT22;5055;52.054;8.524;2023-04-25T06:12:14;6.70;97.00
10030;DHT22;5055;52.054;8.524;2023-04-25T06:14:43;6.70;97.00
10030;DHT22;5055;52.054;8.524;2023-04-25T06:17:13;6.70;97.00
10030;DHT22;5055;52.054;8.524;2023-04-25T06:19:41;6.80;97.00
10030;DHT22;5055;52.054;8.524;2023-04-25T06:22:09;6.80;97.00
10030;DHT22;5055;52.054;8.524;2023-04-25T06:24:37;6.90;97.00
10030;DHT22;5055;52.054;8.524;2023-04-25T06:27:05;6.90;97.00
10030;DHT22;5055;52.054;8.524;2023-04-25T06:29:33;6.90;97.00
10030;DHT22;5055;52.054;8.524;2023-04-25T06:32:01;6.90;97.00
10030;DHT22;5055;52.054;8.524;2023-04-25T06:34:31;6.90;97.00
10030;DHT22;5055;52.054;8.524;2023-04-25T06:36:59;6.90;97.00
10030;DHT22;5055;52.054;8.524;2023-04-25T06:39:27;7.00;97.00
10030;DHT22;5055;52.054;8.524;2023-04-25T06:41:55;7.00;97.00
10030;DHT22;5055;52.054;8.524;2023-04-25T06:44:23;7.10;97.00
10030;DHT22;5055;52.054;8.524;2023-04-25T06:46:52;7.20;97.00
10030;DHT22;5055;52.054;8.524;2023-04-25T06:49:20;7.20;97.00
10030;DHT22;5055;52.054;8.524;2023-04-25T06:51:50;7.20;97.00
10030;DHT22;5055;52.054;8.524;2023-04-25T06:54:18;7.30;97.00
10030;DHT22;5055;52.054;8.524;2023-04-25T06:56:47;7.50;97.00
10030;DHT22;5055;52.054;8.524;2023-04-25T06:59:15;7.40;97.00
10030;DHT22;5055;52.054;8.524;2023-04-25T07:01:43;7.50;97.00
10030;DHT22;5055;52.054;8.524;2023-04-25T07:04:12;7.50;97.00
10030;DHT22;5055;52.054;8.524;2023-04-25T07:06:41;7.50;97.00
10030;DHT22;5055;52.054;8.524;2023-04-25T07:09:11;7.60;97.00
10030;DHT22;5055;52.054;8.524;2023-04-25T07:11:39;7.60;97.00
10030;DHT22;5055;52.054;8.524;2023-04-25T07:14:07;7.60;97.00
10030;DHT22;5055;52.054;8.524;2023-04-25T07:16:35;7.50;97.00
10030;DHT22;5055;52.054;8.524;2023-04-25T07:19:03;7.60;97.00
10030;DHT22;5055;52.054;8.524;2023-04-25T07:21:32;7.60;97.00
10030;DHT22;5055;52.054;8.524;2023-04-25T07:24:00;7.80;97.00
10030;DHT22;5055;52.054;8.524;2023-04-25T07:26:30;7.90;97.00
10030;DHT22;5055;52.054;8.524;2023-04-25T07:28:58;8.00;97.00
10030;DHT22;5055;52.054;8.524;2023-04-25T07:31:26;8.10;97.00
10030;DHT22;5055;52.054;8.524;2023-04-25T07:33:55;8.00;97.00
10030;DHT22;5055;52.054;8.524;2023-04-25T07:36:26;8.20;97.00
10030;DHT22;5055;52.054;8.524;2023-04-25T07:38:54;8.20;97.00
10030;DHT22;5055;52.054;8.524;2023-04-25T07:41:22;8.20;97.00
10030;DHT22;5055;52.054;8.524;2023-04-25T07:43:51;8.10;97.00
10030;DHT22;5055;52.054;8.524;2023-04-25T07:46:19;8.10;97.00
10030;DHT22;5055;52.054;8.524;2023-04-25T07:48:47;8.20;97.00
10030;DHT22;5055;52.054;8.524;2023-04-25T07:51:16;8.40;97.00
10030;DHT22;5055;52.054;8.524;2023-04-25T07:53:46;8.50;97.00
10030;DHT22;5055;52.054;8.524;2023-04-25T07:56:16;8.70;97.00
10030;DHT22;5055;52.054;8.524;2023-04-25T07:58:44;8.80;97.00
10030;DHT22;5055;52.054;8.524;2023-04-25T08:01:14;9.00;97.00
10030;DHT22;5055;52.054;8.524;2023-04-25T08:03:42;9.10;97.00
10030;DHT22;5055;52.054;8.524;2023-04-25T08:06:10;9.40;97.00
10030;DHT22;5055;52.054;8.524;2023-04-25T08:08:39;9.70;97.00
10030;DHT22;5055;52.054;8.524;2023-04-25T08:11:07;9.80;97.00
10030;DHT22;5055;52.054;8.524;2023-04-25T08:13:35;9.70;97.00
10030;DHT22;5055;52.054;8.524;2023-04-25T08:16:04;9.70;97.00
10030;DHT22;5055;52.054;8.524;2023-04-25T08:18:33;9.70;97.00
10030;DHT22;5055;52.054;8.524;2023-04-25T08:21:01;9.80;97.00
10030;DHT22;5055;52.054;8.524;2023-04-25T08:23:29;9.60;97.00
10030;DHT22;5055;52.054;8.524;2023-04-25T08:25:58;9.50;97.00
10030;DHT22;5055;52.054;8.524;2023-04-25T08:28:26;9.40;97.00
10030;DHT22;5055;52.054;8.524;2023-04-25T08:30:54;9.40;97.00
10030;DHT22;5055;52.054;8.524;2023-04-25T08:33:22;9.40;97.00
10030;DHT22;5055;52.054;8.524;2023-04-25T08:35:51;9.50;97.00
10030;DHT22;5055;52.054;8.524;2023-04-25T08:38:20;9.60;97.00
10030;DHT22;5055;52.054;8.524;2023-04-25T08:40:49;9.50;97.00
10030;DHT22;5055;52.054;8.524;2023-04-25T08:43:19;9.40;97.00
10030;DHT22;5055;52.054;8.524;2023-04-25T08:45:47;9.20;97.00
10030;DHT22;5055;52.054;8.524;2023-04-25T08:48:16;9.30;97.00
10030;DHT22;5055;52.054;8.524;2023-04-25T08:50:49;9.90;97.00
10030;DHT22;5055;52.054;8.524;2023-04-25T08:53:22;10.80;97.00
10030;DHT22;5055;52.054;8.524;2023-04-25T08:55:53;10.40;97.00
10030;DHT22;5055;52.054;8.524;2023-04-25T08:58:22;10.20;97.00
10030;DHT22;5055;52.054;8.524;2023-04-25T09:00:51;10.30;97.00
10030;DHT22;5055;52.054;8.524;2023-04-25T09:03:19;10.40;97.00
10030;DHT22;5055;52.054;8.524;2023-04-25T09:05:48;10.90;97.00
10030;DHT22;5055;52.054;8.524;2023-04-25T09:08:16;11.20;97.00
10030;DHT22;5055;52.054;8.524;2023-04-25T09:10:46;11.60;97.00
10030;DHT22;5055;52.054;8.524;2023-04-25T09:13:17;12.00;97.00
10030;DHT22;5055;52.054;8.524;2023-04-25T09:15:52;11.30;97.00
10030;DHT22;5055;52.054;8.524;2023-04-25T09:18:24;11.30;97.00
10030;DHT22;5055;52.054;8.524;2023-04-25T09:20:58;11.40;97.00
10030;DHT22;5055;52.054;8.524;2023-04-25T09:23:40;11.40;97.00
10030;DHT22;5055;52.054;8.524;2023-04-25T09:26:10;11.30;97.00
10030;DHT22;5055;52.054;8.524;2023-04-25T09:28:41;11.20;97.00
10030;DHT22;5055;52.054;8.524;2023-04-25T09:31:10;11.70;97.00
10030;DHT22;5055;52.054;8.524;2023-04-25T09:33:40;11.90;97.00
10030;DHT22;5055;52.054;8.524;2023-04-25T09:36:09;11.30;97.00
10030;DHT22;5055;52.054;8.524;2023-04-25T09:38:41;11.30;97.00
10030;DHT22;5055;52.054;8.524;2023-04-25T09:41:11;11.00;97.00
10030;DHT22;5055;52.054;8.524;2023-04-25T09:43:39;11.10;97.00
10030;DHT22;5055;52.054;8.524;2023-04-25T09:46:08;11.00;97.00
10030;DHT22;5055;52.054;8.524;2023-04-25T09:48:38;10.50;97.00
10030;DHT22;5055;52.054;8.524;2023-04-25T09:51:07;10.10;97.00
10030;DHT22;5055;52.054;8.524;2023-04-25T09:53:37;10.20;97.00
10030;DHT22;5055;52.054;8.524;2023-04-25T09:56:06;10.00;97.00
10030;DHT22;5055;52.054;8.524;2023-04-25T09:58:37;10.00;97.00
10030;DHT22;5055;52.054;8.524;2023-04-25T10:01:07;9.90;97.00
10030;DHT22;5055;52.054;8.524;2023-04-25T10:03:37;9.90;97.00
10030;DHT22;5055;52.054;8.524;2023-04-25T10:06:08;9.80;97.00
10030;DHT22;5055;52.054;8.524;2023-04-25T10:08:37;9.70;97.00
10030;DHT22;5055;52.054;8.524;2023-04-25T10:11:08;9.60;97.00
10030;DHT22;5055;52.054;8.524;2023-04-25T10:13:37;9.40;97.00
10030;DHT22;5055;52.054;8.524;2023-04-25T10:16:06;9.10;97.00
10030;DHT22;5055;52.054;8.524;2023-04-25T10:18:34;9.00;97.00
10030;DHT22;5055;52.054;8.524;2023-04-25T10:21:04;9.00;97.00
10030;DHT22;5055;52.054;8.524;2023-04-25T10:23:33;9.00;97.00
10030;DHT22;5055;52.054;8.524;2023-04-25T10:26:02;9.00;97.00
10030;DHT22;5055;52.054;8.524;2023-04-25T10:28:58;8.90;97.00
10030;DHT22;5055;52.054;8.524;2023-04-25T10:31:26;9.10;97.00
10030;DHT22;5055;52.054;8.524;2023-04-25T10:33:54;9.10;97.00
10030;DHT22;5055;52.054;8.524;2023-04-25T10:36:24;9.00;97.00
10030;DHT22;5055;52.054;8.524;2023-04-25T10:38:53;9.10;97.00
10030;DHT22;5055;52.054;8.524;2023-04-25T10:41:22;9.20;97.00
10030;DHT22;5055;52.054;8.524;2023-04-25T10:44:00;9.40;97.00
10030;DHT22;5055;52.054;8.524;2023-04-25T10:46:29;9.80;97.00
10030;DHT22;5055;52.054;8.524;2023-04-25T10:48:58;10.30;97.00
10030;DHT22;5055;52.054;8.524;2023-04-25T10:51:28;10.90;97.00
10030;DHT22;5055;52.054;8.524;2023-04-25T10:54:17;11.30;97.00
10030;DHT22;5055;52.054;8.524;2023-04-25T10:56:48;11.60;97.00
10030;DHT22;5055;52.054;8.524;2023-04-25T10:59:19;11.60;97.00
10030;DHT22;5055;52.054;8.524;2023-04-25T11:01:51;11.30;97.00
10030;DHT22;5055;52.054;8.524;2023-04-25T11:04:20;11.00;97.00
10030;DHT22;5055;52.054;8.524;2023-04-25T11:07:02;10.50;97.00
10030;DHT22;5055;52.054;8.524;2023-04-25T11:09:33;10.50;97.00
10030;DHT22;5055;52.054;8.524;2023-04-25T11:12:01;10.20;97.00
10030;DHT22;5055;52.054;8.524;2023-04-25T11:14:31;9.90;97.00
10030;DHT22;5055;52.054;8.524;2023-04-25T11:16:59;9.60;97.00
10030;DHT22;5055;52.054;8.524;2023-04-25T11:19:29;9.50;97.00
10030;DHT22;5055;52.054;8.524;2023-04-25T11:21:57;9.30;97.00
10030;DHT22;5055;52.054;8.524;2023-04-25T11:24:27;9.10;97.00
10030;DHT22;5055;52.054;8.524;2023-04-25T11:26:56;9.10;97.00
10030;DHT22;5055;52.054;8.524;2023-04-25T11:29:26;9.20;97.00
10030;DHT22;5055;52.054;8.524;2023-04-25T11:31:56;9.50;97.00
10030;DHT22;5055;52.054;8.524;2023-04-25T11:34:25;9.70;97.00
10030;DHT22;5055;52.054;8.524;2023-04-25T11:36:53;9.90;97.00
10030;DHT22;5055;52.054;8.524;2023-04-25T11:39:23;10.00;97.00
10030;DHT22;5055;52.054;8.524;2023-04-25T11:41:51;10.00;97.00
10030;DHT22;5055;52.054;8.524;2023-04-25T11:44:20;9.90;97.00
10030;DHT22;5055;52.054;8.524;2023-04-25T11:46:48;9.70;97.00
10030;DHT22;5055;52.054;8.524;2023-04-25T11:49:18;9.40;97.00
10030;DHT22;5055;52.054;8.524;2023-04-25T11:51:47;9.30;97.00
10030;DHT22;5055;52.054;8.524;2023-04-25T11:54:16;9.00;97.00
10030;DHT22;5055;52.054;8.524;2023-04-25T11:56:44;8.80;97.00
10030;DHT22;5055;52.054;8.524;2023-04-25T11:59:13;8.80;97.00
10030;DHT22;5055;52.054;8.524;2023-04-25T12:01:48;8.80;97.00
10030;DHT22;5055;52.054;8.524;2023-04-25T12:04:19;8.60;97.00
10030;DHT22;5055;52.054;8.524;2023-04-25T12:06:49;8.80;97.00
10030;DHT22;5055;52.054;8.524;2023-04-25T12:09:19;9.10;97.00
10030;DHT22;5055;52.054;8.524;2023-04-25T12:11:48;9.40;97.00
10030;DHT22;5055;52.054;8.524;2023-04-25T12:14:24;9.80;97.00
10030;DHT22;5055;52.054;8.524;2023-04-25T12:16:56;10.10;97.00
10030;DHT22;5055;52.054;8.524;2023-04-25T12:19:29;10.80;97.00
10030;DHT22;5055;52.054;8.524;2023-04-25T12:22:00;11.60;97.00
10030;DHT22;5055;52.054;8.524;2023-04-25T12:24:32;12.20;97.00
10030;DHT22;5055;52.054;8.524;2023-04-25T12:27:06;12.30;97.00
10030;DHT22;5055;52.054;8.524;2023-04-25T12:29:35;12.00;97.00
10030;DHT22;5055;52.054;8.524;2023-04-25T12:32:15;11.50;97.00
10030;DHT22;5055;52.054;8.524;2023-04-25T12:34:45;11.20;97.00
10030;DHT22;5055;52.054;8.524;2023-04-25T12:37:13;10.70;97.00
10030;DHT22;5055;52.054;8.524;2023-04-25T12:39:41;10.50;97.00
10030;DHT22;5055;52.054;8.524;2023-04-25T12:42:09;10.60;97.00
10030;DHT22;5055;52.054;8.524;2023-04-25T12:44:39;10.90;97.00
10030;DHT22;5055;52.054;8.524;2023-04-25T12:47:08;11.30;97.00
10030;DHT22;5055;52.054;8.524;2023-04-25T12:49:36;12.00;97.00
10030;DHT22;5055;52.054;8.524;2023-04-25T12:52:06;12.30;97.00
10030;DHT22;5055;52.054;8.524;2023-04-25T12:54:34;12.30;97.00
10030;DHT22;5055;52.054;8.524;2023-04-25T12:57:02;12.80;97.00
10030;DHT22;5055;52.054;8.524;2023-04-25T12:59:30;12.90;97.00
10030;DHT22;5055;52.054;8.524;2023-04-25T13:01:58;12.80;97.00
10030;DHT22;5055;52.054;8.524;2023-04-25T13:04:26;13.10;97.00
10030;DHT22;5055;52.054;8.524;2023-04-25T13:06:55;13.10;97.00
10030;DHT22;5055;52.054;8.524;2023-04-25T13:09:24;12.90;97.00
10030;DHT22;5055;52.054;8.524;2023-04-25T13:11:52;12.70;97.00
10030;DHT22;5055;52.054;8.524;2023-04-25T13:14:24;12.00;97.00
10030;DHT22;5055;52.054;8.524;2023-04-25T13:16:52;11.00;97.00
10030;DHT22;5055;52.054;8.524;2023-04-25T13:19:21;10.00;97.00
10030;DHT22;5055;52.054;8.524;2023-04-25T13:21:49;9.30;97.00
10030;DHT22;5055;52.054;8.524;2023-04-25T13:24:17;8.60;97.00
10030;DHT22;5055;52.054;8.524;2023-04-25T13:26:47;8.10;97.00
10030;DHT22;5055;52.054;8.524;2023-04-25T13:29:15;7.70;97.00
10030;DHT22;5055;52.054;8.524;2023-04-25T13:31:43;7.50;97.00
10030;DHT22;5055;52.054;8.524;2023-04-25T13:34:11;7.40;97.00
10030;DHT22;5055;52.054;8.524;2023-04-25T13:36:39;7.40;97.00
10030;DHT22;5055;52.054;8.524;2023-04-25T13:39:07;7.50;97.00
10030;DHT22;5055;52.054;8.524;2023-04-25T13:41:35;7.80;97.00
10030;DHT22;5055;52.054;8.524;2023-04-25T13:44:05;8.40;97.00
10030;DHT22;5055;52.054;8.524;2023-04-25T13:46:33;9.10;97.00
10030;DHT22;5055;52.054;8.524;2023-04-25T13:49:12;9.80;97.00
10030;DHT22;5055;52.054;8.524;2023-04-25T13:51:41;10.50;97.00
10030;DHT22;5055;52.054;8.524;2023-04-25T13:54:09;11.10;97.00
10030;DHT22;5055;52.054;8.524;2023-04-25T13:56:37;11.40;97.00
10030;DHT22;5055;52.054;8.524;2023-04-25T13:59:10;11.70;97.00
10030;DHT22;5055;52.054;8.524;2023-04-25T14:01:38;12.00;97.00
10030;DHT22;5055;52.054;8.524;2023-04-25T14:04:07;12.40;97.00
10030;DHT22;5055;52.054;8.524;2023-04-25T14:06:35;12.60;97.00
10030;DHT22;5055;52.054;8.524;2023-04-25T14:09:04;13.10;97.00
10030;DHT22;5055;52.054;8.524;2023-04-25T14:11:33;13.40;97.00
10030;DHT22;5055;52.054;8.524;2023-04-25T14:14:02;13.70;97.00
10030;DHT22;5055;52.054;8.524;2023-04-25T14:16:31;14.10;97.00
10030;DHT22;5055;52.054;8.524;2023-04-25T14:18:59;14.40;97.00
10030;DHT22;5055;52.054;8.524;2023-04-25T14:21:27;13.90;97.00
10030;DHT22;5055;52.054;8.524;2023-04-25T14:23:55;14.10;97.00
10030;DHT22;5055;52.054;8.524;2023-04-25T14:26:23;13.70;97.00
10030;DHT22;5055;52.054;8.524;2023-04-25T14:28:52;13.50;97.00
10030;DHT22;5055;52.054;8.524;2023-04-25T14:31:20;13.50;97.00
10030;DHT22;5055;52.054;8.524;2023-04-25T14:33:49;13.10;97.00
10030;DHT22;5055;52.054;8.524;2023-04-25T14:36:18;12.60;97.00
10030;DHT22;5055;52.054;8.524;2023-04-25T14:38:47;12.20;97.00
10030;DHT22;5055;52.054;8.524;2023-04-25T14:41:15;12.00;97.00
10030;DHT22;5055;52.054;8.524;2023-04-25T14:43:43;12.20;97.00
10030;DHT22;5055;52.054;8.524;2023-04-25T14:46:11;12.80;97.00
10030;DHT22;5055;52.054;8.524;2023-04-25T14:48:39;13.10;97.00
10030;DHT22;5055;52.054;8.524;2023-04-25T14:51:09;13.00;97.00
10030;DHT22;5055;52.054;8.524;2023-04-25T14:53:37;12.50;97.00
10030;DHT22;5055;52.054;8.524;2023-04-25T14:56:05;12.10;97.00
10030;DHT22;5055;52.054;8.524;2023-04-25T14:58:34;12.40;97.00
10030;DHT22;5055;52.054;8.524;2023-04-25T15:01:02;13.00;97.00
10030;DHT22;5055;52.054;8.524;2023-04-25T15:03:30;13.50;97.00
10030;DHT22;5055;52.054;8.524;2023-04-25T15:05:58;13.20;97.00
10030;DHT22;5055;52.054;8.524;2023-04-25T15:08:28;13.10;97.00
10030;DHT22;5055;52.054;8.524;2023-04-25T15:10:56;12.60;97.00
10030;DHT22;5055;52.054;8.524;2023-04-25T15:13:24;11.90;97.00
10030;DHT22;5055;52.054;8.524;2023-04-25T15:15:52;11.50;97.00
10030;DHT22;5055;52.054;8.524;2023-04-25T15:18:21;11.10;97.00
10030;DHT22;5055;52.054;8.524;2023-04-25T15:20:51;10.80;97.00
10030;DHT22;5055;52.054;8.524;2023-04-25T15:23:20;10.90;97.00
10030;DHT22;5055;52.054;8.524;2023-04-25T15:25:50;11.40;97.00
10030;DHT22;5055;52.054;8.524;2023-04-25T15:28:19;11.70;97.00
10030;DHT22;5055;52.054;8.524;2023-04-25T15:30:48;11.70;97.00
10030;DHT22;5055;52.054;8.524;2023-04-25T15:33:16;11.80;97.00
10030;DHT22;5055;52.054;8.524;2023-04-25T15:35:45;11.40;97.00
10030;DHT22;5055;52.054;8.524;2023-04-25T15:38:12;11.30;97.00
10030;DHT22;5055;52.054;8.524;2023-04-25T15:40:41;11.30;97.00
10030;DHT22;5055;52.054;8.524;2023-04-25T15:43:10;11.30;97.00
10030;DHT22;5055;52.054;8.524;2023-04-25T15:45:42;11.30;97.00
10030;DHT22;5055;52.054;8.524;2023-04-25T15:48:11;11.50;97.00
10030;DHT22;5055;52.054;8.524;2023-04-25T15:50:40;11.80;97.00
10030;DHT22;5055;52.054;8.524;2023-04-25T15:53:08;12.20;97.00
10030;DHT22;5055;52.054;8.524;2023-04-25T15:55:36;11.70;97.00
10030;DHT22;5055;52.054;8.524;2023-04-25T15:58:04;11.40;97.00
10030;DHT22;5055;52.054;8.524;2023-04-25T16:00:36;11.30;97.00
10030;DHT22;5055;52.054;8.524;2023-04-25T16:03:05;11.40;97.00
10030;DHT22;5055;52.054;8.524;2023-04-25T16:05:35;11.30;97.00
10030;DHT22;5055;52.054;8.524;2023-04-25T16:08:04;11.20;97.00